Tiempo atmosférico en la estación meteorológica de Valdemorillo, Madrid (884 m.)



Fecha
DESCASC
Temp. máxima en grados centígrados (hora)
DESCASC
Temp. mínima en grados centígrados (hora)
DESCASC
Temp. media en grados centígrados
DESCASC
Racha de viento máxima en m/sg (hora)
DESCASC
Velocidad máxima media en intervalos de 10 minutos(hora)
DESCASC
Precipitaciones diarias en mm
DESCASC
Precipitaciones de 00:00 a 06:00 en mm
DESCASC
Precipitaciones de 06:00 a 12:00 en mm
DESCASC
Precipitaciones de 12:00 a 18:00 en mm
DESCASC
Precipitaciones de 18:00 a 24:00 en mm
DESCASC
16-06-2019 28.1 (17:20) 12.8 (07:00) 20.5 8.89 (13:30) 4.72 (18:10) 0 0 0 0 0
15-06-2019 25 (18:30) 10.1 (07:00) 17.6 7.78 (16:00) 3.89 (19:00) 0 0 0 0 0
14-06-2019 22.9 (17:30) 12.2 (06:50) 17.5 11.67 (14:30) 6.94 (15:40) 0 0 0 0 0
13-06-2019 26.1 (18:10) 10.7 (00:00) 18.4 10.56 (18:20) 6.39 (18:20) 0 0 0 0 0
12-06-2019 23.6 (18:50) 8 (00:00) 15.8 12.22 (14:40) 5.28 (19:30) 0 0 0 0 0
11-06-2019 18.8 (17:40) 12.2 (00:00) 15.5 13.33 (15:20) 6.39 (15:30) 0 0 0 0 0
10-06-2019 24.4 (18:40) 12.5 (00:00) 18.4 10 (01:30) 6.11 (01:30) 0 0 0 0 0
09-06-2019 26.2 (18:00) 12.3 (00:00) 19.3 13.33 (16:00) 6.39 (12:50) 0 0 0 0 0
08-06-2019 26.7 (17:10) 10 (00:00) 18.4 10.28 (15:30) 5 (18:00) 0 0 0 0 0
07-06-2019 21 (19:30) 8 (00:00) 14.5 13.61 (03:10) 7.22 (03:10) 1.4 1.4 0 0 0
06-06-2019 21.4 (18:00) 8.1 (00:00) 14.8 13.89 (19:20) 8.61 (20:30) 0 0 0 0 0
05-06-2019 20 (17:10) 10.5 (00:00) 15.3 16.67 (11:50) 9.72 (11:50) 0 0 0 0 0
04-06-2019 27.1 (17:00) 15.3 (00:00) 21.2 13.33 (18:20) 7.22 (14:30) 0 0 0 0 0
03-06-2019 31.2 (18:10) 19 (00:00) 25.1 14.17 (17:00) 8.89 (15:20) 0 0 0 0 0
02-06-2019 32.9 (16:50) 16.2 (00:00) 24.6 9.72 (18:00) 5 (16:00) 0 0 0 0 0
01-06-2019 32.7 (17:40) 14.8 (00:00) 23.8 6.11 (18:50) 3.89 (19:50) 0 0 0 0 0
31-05-2019 31 (17:50) 14.8 (00:00) 22.9 7.78 (02:40) 4.17 (03:00) 0 0 0 0 0
30-05-2019 29.6 (17:20) 11.1 (00:00) 20.4 8.33 (14:30) 3.61 (15:10) 0 0 0 0 0
29-05-2019 26.2 (17:30) 8.2 (00:00) 17.2 10.28 (20:00) 6.11 (19:40) 0 0 0 0 0
28-05-2019 23.7 (15:20) 11.5 (00:00) 17.6 12.22 (20:20) 7.22 (19:00) 0 0 0 0 0
27-05-2019 25.9 (17:30) 12.9 (00:00) 19.4 9.44 (13:50) 6.39 (13:50) 0 0 0 0 0
26-05-2019 25.4 (16:30) 7.9 (00:00) 16.6 11.39 (20:40) 6.67 (20:40) 0 0 0 0 0
25-05-2019 23.5 (17:20) 8.1 (00:00) 15.8 11.11 (20:20) 6.11 (20:00) 0 0 0 0 0
24-05-2019 22.3 (17:10) 13.7 (00:00) 18 12.78 (20:20) 7.5 (20:00) 0 0 0 0 0
23-05-2019 27.4 (17:30) 15.2 (00:00) 21.3 11.94 (13:50) 6.94 (14:50) 0 0 0 0 0
22-05-2019 26.7 (16:20) 10.8 (00:00) 18.8 8.06 (16:20) 3.89 (19:30) 0 0 0 0 0

Gráficas

Temp. máximas Temp. mínimas Temp. medias Precipitaciones Rachas de viento máximas Velocidades máximas media en intervalos de 10 minutos

Datos horarios

Fecha y hora oficial Temperatura (ºC) Velocidad del viento (km/h) Dirección del viento Racha (km/h) Dirección de racha Precipitación (mm) Presión (hPa) Tendencia (hPa) Humedad (%)
2019-06-20 23:00:00 20.6 8 Norte 22 Oeste 0 -- -- 50
2019-06-20 22:00:00 22.2 11 Oeste 29 Oeste 0 -- -- 41
2019-06-20 21:00:00 23.9 15 Oeste 33 Oeste 0 -- -- 38
2019-06-20 20:00:00 25.3 18 Oeste 32 Noroeste 0 -- -- 35
2019-06-20 19:00:00 26.3 17 Sudoeste 35 Sudoeste 0 -- -- 33
2019-06-20 18:00:00 26.2 22 Sudoeste 38 Sudoeste 0 -- -- 33
2019-06-20 17:00:00 26.8 16 Sudoeste 35 Sudoeste 0 -- -- 32
2019-06-20 16:00:00 26.3 17 Oeste 40 Sudoeste 0 -- -- 35
2019-06-20 15:00:00 24.7 14 Sudoeste 32 Sudoeste 0 -- -- 39
2019-06-20 14:00:00 23.6 12 Oeste 28 Sudoeste 0 -- -- 42
2019-06-20 13:00:00 23.7 7 Sur 19 Sudoeste 0 -- -- 42
2019-06-20 12:00:00 22.8 6 Sudoeste 26 Sudeste 0 -- -- 44
2019-06-20 11:00:00 21.8 10 Sudeste 19 Sudeste 0 -- -- 46
2019-06-20 10:00:00 21.3 11 Sudeste 21 Este 0 -- -- 48
2019-06-20 09:00:00 18.9 6 Nordeste 10 Nordeste 0 -- -- 57
2019-06-20 08:00:00 17.1 4 Norte 6 Norte 0 -- -- 63
2019-06-20 07:00:00 15.1 2 Nordeste 5 Nordeste 0 -- -- 66
2019-06-20 06:00:00 15 0 Calma 4 Sudoeste 0 -- -- 66
2019-06-20 05:00:00 16.1 3 Este 6 Norte 0 -- -- 63
2019-06-20 04:00:00 17.6 4 Norte 6 Noroeste 0 -- -- 59
2019-06-20 03:00:00 18.2 5 Norte 13 Nordeste 0 -- -- 57
2019-06-20 02:00:00 18.8 6 Nordeste 13 Nordeste 0 -- -- 55
2019-06-20 01:00:00 19.3 4 Noroeste 15 Nordeste 0 -- -- 53
2019-06-20 00:00:00 20.2 7 Norte 18 Norte 0 -- -- 50
2019-06-19 23:00:00 19.9 2 Este 10 Sudoeste 0 -- -- 51
2019-06-19 22:00:00 21.2 8 Sudoeste 24 Sudoeste 0 -- -- 48
2019-06-19 21:00:00 22.8 13 Sudoeste 29 Sudoeste 0 -- -- 45
2019-06-19 20:00:00 24.3 15 Sudoeste 33 Sudoeste 0 -- -- 41
2019-06-19 19:00:00 25.7 19 Sudoeste 37 Sudoeste 0 -- -- 37
2019-06-19 18:00:00 25.3 22 Sudoeste 40 Sudoeste 0 -- -- 38
2019-06-19 17:00:00 25.2 21 Sudoeste 43 Sur 0 -- -- 39
2019-06-19 16:00:00 25.1 22 Sudoeste 41 Sur 0 -- -- 39
2019-06-19 15:00:00 24.3 19 Sudoeste 36 Sudoeste 0 -- -- 43
2019-06-19 14:00:00 23.5 21 Sudoeste 37 Sudoeste 0 -- -- 45
2019-06-19 13:00:00 22.2 21 Sudoeste 40 Sudoeste 0 -- -- 47
2019-06-19 12:00:00 21.5 22 Sudoeste 38 Sudoeste 0 -- -- 50
2019-06-19 11:00:00 20.2 17 Sudoeste 29 Sudoeste 0 -- -- 54
2019-06-19 10:00:00 18.9 13 Sudoeste 23 Oeste 0 -- -- 58
2019-06-19 09:00:00 16.7 8 Sudoeste 13 Sudoeste 0 -- -- 65
2019-06-19 08:00:00 15.5 9 Sur 14 Sur 0 -- -- 69
2019-06-19 07:00:00 15.6 5 Oeste 17 Oeste 0 -- -- 71
2019-06-19 06:00:00 16 9 Oeste 18 Sudoeste 0 -- -- 71
2019-06-19 05:00:00 16.3 5 Oeste 13 Oeste 0 -- -- 69
2019-06-19 04:00:00 16.9 2 Oeste 18 Sudoeste 0 -- -- 66
2019-06-19 03:00:00 17.8 10 Sudoeste 19 Sudoeste 0 -- -- 63
2019-06-19 02:00:00 18.5 10 Sudoeste 15 Sudoeste 0 -- -- 56
2019-06-19 01:00:00 19.3 6 Oeste 13 Oeste 0 -- -- 50
2019-06-19 00:00:00 20.1 9 Oeste 13 Oeste 0 -- -- 47
2019-06-18 23:00:00 20.6 6 Oeste 14 Oeste 0 -- -- 46
2019-06-18 22:00:00 21.8 9 Oeste 31 Sudoeste -- -- -- 44
2019-06-18 21:00:00 23.6 20 Oeste 35 Oeste 0 -- -- 39
2019-06-18 20:00:00 25.7 18 Oeste 37 Noroeste 0 -- -- 34
2019-06-18 19:00:00 27.4 19 Sudoeste 40 Sudoeste 0 -- -- 25
2019-06-18 18:00:00 27.8 21 Sudoeste 47 Sudoeste 0 -- -- 17
2019-06-18 17:00:00 27.8 28 Sudoeste 45 Sudoeste 0 -- -- 17
2019-06-18 16:00:00 27.7 22 Sudoeste 48 Oeste 0 -- -- 14
2019-06-18 15:00:00 26.9 24 Sudoeste 41 Oeste 0 -- -- 16
2019-06-18 14:00:00 25.6 25 Sudoeste 40 Sudoeste 0 -- -- 17
2019-06-18 13:00:00 24.7 19 Sudoeste 36 Sudoeste 0 -- -- 21
2019-06-18 12:00:00 23.3 20 Sudoeste 31 Sudoeste 0 -- -- 22
2019-06-18 11:00:00 22.6 18 Sudoeste 30 Sudoeste 0 -- -- 23
2019-06-18 10:00:00 21.2 12 Sudoeste 21 Sudoeste 0 -- -- 32
2019-06-18 09:00:00 20 8 Oeste 15 Oeste 0 -- -- 32
2019-06-18 08:00:00 18.3 4 Sudoeste 9 Sudoeste 0 -- -- 33
2019-06-18 07:00:00 18.1 7 Sudoeste 15 Oeste 0 -- -- 32
2019-06-18 06:00:00 18.8 5 Oeste 15 Oeste 0 -- -- 31
2019-06-18 05:00:00 19.4 3 Oeste 9 Sudoeste 0 -- -- 32
2019-06-18 04:00:00 20.2 4 Sudoeste 9 Sudoeste 0 -- -- 31
2019-06-18 03:00:00 21.6 4 Sur 8 Sur 0 -- -- 28
2019-06-18 02:00:00 21.9 2 Sur 13 Sudoeste 0 -- -- 29
2019-06-18 01:00:00 23.2 3 Norte 6 Oeste 0 -- -- 26
2019-06-18 00:00:00 24.3 2 Norte 9 Noroeste 0 -- -- 25
2019-06-17 23:00:00 24.9 5 Noroeste 14 Oeste 0 -- -- 23
2019-06-17 22:00:00 25.6 6 Oeste 21 Oeste 0 -- -- 22
2019-06-17 21:00:00 27 11 Oeste 21 Oeste 0 -- -- 21
2019-06-17 20:00:00 27.9 10 Sudoeste 27 Sudoeste 0 -- -- 21
2019-06-17 19:00:00 28.6 13 Sudoeste 31 Sudoeste 0 -- -- 21
2019-06-17 18:00:00 28.5 16 Sudoeste 30 Sudoeste 0 -- -- 21
2019-06-17 17:00:00 29.4 18 Sudoeste 34 Sur 0 -- -- 20
2019-06-17 16:00:00 28.7 13 Sur 32 Sudoeste 0 -- -- 19
2019-06-17 15:00:00 28.4 15 Sudoeste 31 Sudoeste 0 -- -- 21
2019-06-17 14:00:00 27.4 14 Sur 32 Sur 0 -- -- 21
2019-06-17 13:00:00 26.4 9 Sudoeste 22 Sur 0 -- -- 23
2019-06-17 12:00:00 24.6 8 Sur 17 Sudoeste 0 -- -- 29
2019-06-17 11:00:00 22.5 7 Sudeste 15 Sudeste 0 -- -- 35
2019-06-17 10:00:00 21.2 7 Este 13 Este 0 -- -- 41
2019-06-17 09:00:00 19 9 Este 16 Nordeste 0 -- -- 44
2019-06-17 08:00:00 15.7 9 Nordeste 14 Nordeste 0 -- -- 42
2019-06-17 07:00:00 14.9 9 Este 11 Este 0 -- -- 46
2019-06-17 06:00:00 15.3 6 Este 8 Nordeste 0 -- -- 39
2019-06-17 05:00:00 15.8 7 Nordeste 10 Este 0 -- -- 38
2019-06-17 04:00:00 16.4 4 Nordeste 16 Este 0 -- -- 38
2019-06-17 03:00:00 17.4 3 Nordeste 5 Norte 0 -- -- 34
2019-06-17 02:00:00 17.8 2 Nordeste 9 Norte 0 -- -- 33
2019-06-17 01:00:00 19.3 4 Nordeste 14 Nordeste 0 -- -- 30
2019-06-17 00:00:00 20.3 5 Norte 9 Noroeste 0 -- -- 30
2019-06-16 23:00:00 21.9 3 Noroeste 12 Noroeste 0 -- -- 27
2019-06-16 22:00:00 23.3 5 Noroeste 9 Oeste 0 -- -- 26
2019-06-16 21:00:00 24.9 6 Oeste 15 Oeste 0 -- -- 23
2019-06-16 20:00:00 25.6 9 Oeste 22 Oeste 0 -- -- 21
2019-06-16 19:00:00 26.4 11 Sudoeste 32 Sudoeste 0 -- -- 21
2019-06-16 18:00:00 27.8 12 Sudoeste 29 Sudoeste 0 -- -- 19
2019-06-16 17:00:00 27.3 8 Sudeste 22 Sur 0 -- -- 18
2019-06-16 16:00:00 25.6 8 Sudeste 23 Sudoeste 0 -- -- 22
2019-06-16 15:00:00 25.6 13 Sur 26 Sur 0 -- -- 23
2019-06-16 14:00:00 24.9 10 Sur 32 Sudeste 0 -- -- 25
2019-06-16 13:00:00 24.7 10 Sudoeste 23 Sudoeste 0 -- -- 25
2019-06-16 12:00:00 22.5 9 Sudeste 18 Sur 0 -- -- 28
2019-06-16 11:00:00 20.8 7 Sudeste 20 Sudeste 0 -- -- 31
2019-06-16 10:00:00 19.6 10 Este 26 Este 0 -- -- 37
2019-06-16 09:00:00 17.6 8 Este 21 Nordeste 0 -- -- 43
2019-06-16 08:00:00 14.2 9 Nordeste 15 Nordeste 0 -- -- 51
2019-06-16 07:00:00 12.8 8 Nordeste 15 Norte 0 -- -- 53
2019-06-16 06:00:00 12.9 8 Nordeste 15 Nordeste 0 -- -- 52
2019-06-16 05:00:00 14.8 8 Este 15 Este 0 -- -- 44
2019-06-16 04:00:00 14.8 9 Este 17 Nordeste 0 -- -- 41
2019-06-16 03:00:00 15.9 10 Nordeste 17 Norte 0 -- -- 37
2019-06-16 02:00:00 15.9 10 Nordeste 17 Nordeste 0 -- -- 37
2019-06-16 01:00:00 16.1 6 Nordeste 8 Nordeste 0 -- -- 39
2019-06-16 00:00:00 16.6 2 Norte 3 Norte 0 -- -- 37
2019-06-15 23:00:00 18.1 0 Calma 7 Sudoeste 0 -- -- 34
2019-06-15 22:00:00 20.2 5 Sudoeste 16 Sudoeste 0 -- -- 31
2019-06-15 21:00:00 22.7 9 Sudoeste 18 Sudoeste 0 -- -- 28
2019-06-15 20:00:00 24.6 6 Sudoeste 21 Sudoeste 0 -- -- 27
2019-06-15 19:00:00 24.5 14 Sudoeste 26 Sur 0 -- -- 27
2019-06-15 18:00:00 24.7 9 Sudoeste 23 Oeste 0 -- -- 26
2019-06-15 17:00:00 24.4 9 Sudoeste 25 Oeste 0 -- -- 26
2019-06-15 16:00:00 23.3 13 Sudoeste 28 Sudoeste 0 -- -- 28
2019-06-15 15:00:00 22 6 Este 22 Sudoeste 0 -- -- 28
2019-06-15 14:00:00 21.3 11 Sur 19 Sudeste 0 -- -- 31
2019-06-15 13:00:00 19.8 6 Sur 22 Oeste 0 -- -- 34
2019-06-15 12:00:00 18.3 9 Nordeste 18 Oeste 0 -- -- 37
2019-06-15 11:00:00 16.4 5 Este 13 Nordeste 0 -- -- 40
2019-06-15 10:00:00 15 5 Norte 16 Nordeste 0 -- -- 46
2019-06-15 09:00:00 13.4 6 Norte 15 Norte 0 -- -- 53
2019-06-15 08:00:00 11.5 6 Norte 10 Norte 0 -- -- 59
2019-06-15 07:00:00 10.1 3 Norte 12 Norte 0 -- -- 63
2019-06-15 06:00:00 10.4 5 Oeste 17 Norte 0 -- -- 62
2019-06-15 05:00:00 11.2 8 Norte 14 Norte 0 -- -- 59
2019-06-15 04:00:00 12.2 2 Norte 18 Norte 0 -- -- 52
2019-06-15 03:00:00 12.6 9 Noroeste 22 Oeste 0 -- -- 52
2019-06-15 02:00:00 13.7 13 Norte 25 Norte 0 -- -- 49
2019-06-15 01:00:00 14.5 9 Noroeste 19 Noroeste 0 -- -- 46
2019-06-15 00:00:00 14.8 9 Oeste 19 Oeste 0 -- -- 42
2019-06-14 23:00:00 15.7 10 Oeste 28 Oeste 0 -- -- 40
2019-06-14 22:00:00 16.7 14 Oeste 35 Sudoeste 0 -- -- 38
2019-06-14 21:00:00 18.5 17 Oeste 37 Oeste 0 -- -- 35
2019-06-14 20:00:00 20.4 23 Sudoeste 40 Sudoeste 0 -- -- 29
2019-06-14 19:00:00 22 21 Oeste 39 Sudoeste 0 -- -- 26
2019-06-14 18:00:00 22.1 24 Sudoeste 41 Sudoeste 0 -- -- 25
2019-06-14 17:00:00 22.5 24 Oeste 40 Oeste 0 -- -- 26
2019-06-14 16:00:00 22.5 23 Sudoeste 41 Sudoeste 0 -- -- 25
2019-06-14 15:00:00 22.2 19 Oeste 42 Sudoeste 0 -- -- 28
2019-06-14 14:00:00 21.4 20 Sudoeste 41 Sudoeste 0 -- -- 31
2019-06-14 13:00:00 20.6 15 Sudoeste 37 Oeste 0 -- -- 34
2019-06-14 12:00:00 19.4 21 Oeste 41 Oeste 0 -- -- 35
2019-06-14 11:00:00 18.4 21 Sudoeste 39 Oeste 0 -- -- 37
2019-06-14 10:00:00 17 15 Sudoeste 24 Sudoeste 0 -- -- 39
2019-06-14 09:00:00 15.3 9 Sudoeste 15 Sudoeste 0 -- -- 41
2019-06-14 08:00:00 13.1 9 Sudoeste 21 Sudoeste 0 -- -- 45
2019-06-14 07:00:00 12.4 4 Oeste 12 Oeste 0 -- -- 39
2019-06-14 06:00:00 12.6 2 Sudeste 4 Sudeste 0 -- -- 37
2019-06-14 05:00:00 14 0 Calma 6 Oeste 0 -- -- 33
2019-06-14 04:00:00 15 4 Oeste 12 Oeste 0 -- -- 32
2019-06-14 03:00:00 16.2 3 Oeste 10 Sur 0 -- -- 30
2019-06-14 02:00:00 16.9 4 Sur 15 Sudeste 0 -- -- 28
2019-06-14 01:00:00 18 6 Sudeste 15 Noroeste 0 -- -- 29
2019-06-14 00:00:00 20.1 8 Noroeste 23 Noroeste 0 -- -- 26
2019-06-13 23:00:00 20.4 11 Noroeste 26 Noroeste 0 -- -- 24
2019-06-13 22:00:00 20.7 10 Noroeste 23 Oeste 0 -- -- 25
2019-06-13 21:00:00 21.7 15 Oeste 28 Oeste 0 -- -- 25
2019-06-13 20:00:00 23.6 17 Oeste 34 Oeste 0 -- -- 25
2019-06-13 19:00:00 25 21 Sudoeste 38 Sudoeste 0 -- -- 22
2019-06-13 18:00:00 25.8 19 Oeste 34 Sudoeste 0 -- -- 21
2019-06-13 17:00:00 25 19 Sudoeste 35 Sudoeste 0 -- -- 22
2019-06-13 16:00:00 25.2 19 Sudoeste 33 Sudoeste 0 -- -- 21
2019-06-13 15:00:00 24.3 18 Sudoeste 33 Sur 0 -- -- 24
2019-06-13 14:00:00 23.2 17 Sudoeste 32 Sur 0 -- -- 27
2019-06-13 13:00:00 21.1 10 Sur 23 Sudeste 0 -- -- 38
2019-06-13 12:00:00 19.1 6 Sudeste 21 Este 0 -- -- 44
2019-06-13 11:00:00 17.2 12 Sudeste 22 Sudeste 0 -- -- 56
2019-06-13 10:00:00 16 10 Sudeste 18 Sudeste 0 -- -- 63
2019-06-13 09:00:00 14.2 7 Nordeste 14 Nordeste 0 -- -- 70
2019-06-13 08:00:00 11.6 7 Nordeste 13 Nordeste 0 -- -- 69
2019-06-13 07:00:00 10.9 5 Nordeste 10 Nordeste 0 -- -- 67
2019-06-13 06:00:00 11.5 4 Este 12 Nordeste 0 -- -- 67
2019-06-13 05:00:00 12.3 7 Nordeste 15 Nordeste 0 -- -- 54
2019-06-13 04:00:00 13.3 4 Nordeste 12 Sudeste 0 -- -- 51
2019-06-13 03:00:00 13.6 9 Sudeste 15 Este 0 -- -- 38
2019-06-13 02:00:00 14 3 Nordeste 5 Nordeste 0 -- -- 33
2019-06-13 01:00:00 15.2 0 Calma 5 Norte 0 -- -- 27
2019-06-13 00:00:00 17.6 3 Noroeste 15 Noroeste 0 -- -- 24
2019-06-12 23:00:00 18.3 7 Noroeste 14 Noroeste 0 -- -- 24
2019-06-12 22:00:00 19.6 8 Oeste 20 Oeste 0 -- -- 21
2019-06-12 21:00:00 21.6 12 Oeste 29 Sudoeste 0 -- -- 20
2019-06-12 20:00:00 23.4 12 Sudoeste 36 Sudoeste 0 -- -- 17
2019-06-12 19:00:00 23.6 18 Sudoeste 34 Sudoeste 0 -- -- 16
2019-06-12 18:00:00 23.2 15 Oeste 30 Sudoeste 0 -- -- 19
2019-06-12 17:00:00 22.6 14 Oeste 28 Sudoeste 0 -- -- 20
2019-06-12 16:00:00 21.6 12 Sudoeste 30 Sudoeste 0 -- -- 23
2019-06-12 15:00:00 21 12 Sudoeste 44 Oeste 0 -- -- 25
2019-06-12 14:00:00 19.6 8 Sudoeste 25 Sudoeste 0 -- -- 29
2019-06-12 13:00:00 17.8 7 Sudoeste 26 Sur 0 -- -- 34
2019-06-12 12:00:00 16.6 7 Sudoeste 20 Sudoeste 0 -- -- 41
2019-06-12 11:00:00 15 5 Sudeste 16 Sur 0 -- -- 46
2019-06-12 10:00:00 13.9 6 Sur 18 Sur 0 -- -- 50
2019-06-12 09:00:00 12.3 8 Este 18 Este 0 -- -- 51
2019-06-12 08:00:00 10.2 7 Este 15 Este 0 -- -- 55
2019-06-12 07:00:00 8 8 Nordeste 18 Nordeste 0 -- -- 58
2019-06-12 06:00:00 8.5 8 Nordeste 14 Norte 0 -- -- 55
2019-06-12 05:00:00 8.7 6 Nordeste 10 Nordeste 0 -- -- 58
2019-06-12 04:00:00 9.4 7 Nordeste 12 Nordeste 0 -- -- 50
2019-06-12 03:00:00 10.4 4 Nordeste 12 Nordeste 0 -- -- 47
2019-06-12 02:00:00 10.9 4 Nordeste 18 Norte 0 -- -- 47
2019-06-12 01:00:00 11.5 7 Nordeste 12 Norte 0 -- -- 45
2019-06-12 00:00:00 12.4 4 Nordeste 9 Nordeste 0 -- -- 41
2019-06-11 23:00:00 13.9 4 Norte 9 Norte 0 -- -- 35
2019-06-11 22:00:00 15.4 7 Norte 21 Norte 0 -- -- 32
2019-06-11 21:00:00 17 10 Nordeste 27 Nordeste 0 -- -- 30
2019-06-11 20:00:00 18.4 12 Nordeste 31 Nordeste 0 -- -- 27
2019-06-11 19:00:00 18.4 18 Norte 31 Nordeste 0 -- -- 28
2019-06-11 18:00:00 18.6 16 Nordeste 37 Norte 0 -- -- 26
2019-06-11 17:00:00 18.2 22 Norte 42 Norte 0 -- -- 28
2019-06-11 16:00:00 18.2 18 Norte 48 Norte 0 -- -- 30
2019-06-11 15:00:00 16.9 21 Norte 41 Nordeste 0 -- -- 29
2019-06-11 14:00:00 16.4 18 Norte 33 Norte 0 -- -- 35
2019-06-11 13:00:00 16.9 12 Nordeste 36 Norte 0 -- -- 38
2019-06-11 12:00:00 14.1 15 Norte 33 Nordeste 0 -- -- 51
2019-06-11 11:00:00 13.2 23 Norte 43 Norte 0 -- -- 53
2019-06-11 10:00:00 13.1 16 Norte 39 Nordeste 0 -- -- 57
2019-06-11 09:00:00 12.3 19 Norte 36 Norte 0 -- -- 61
2019-06-11 08:00:00 13 17 Nordeste 33 Nordeste 0 -- -- 57
2019-06-11 07:00:00 13.1 16 Nordeste 27 Nordeste 0 -- -- 57
2019-06-11 06:00:00 14.1 4 Nordeste 32 Noroeste 0 -- -- 52
2019-06-11 05:00:00 15.1 13 Norte 33 Norte 0 -- -- 48
2019-06-11 04:00:00 15.5 11 Norte 31 Norte 0 -- -- 44
2019-06-11 03:00:00 15.9 15 Norte 38 Norte 0 -- -- 39
2019-06-11 02:00:00 16.6 18 Norte 39 Norte 0 -- -- 35
2019-06-11 01:00:00 17.6 13 Noroeste 36 Norte 0 -- -- 29
2019-06-11 00:00:00 18.6 15 Noroeste 32 Noroeste 0 -- -- 29
2019-06-10 23:00:00 18.9 12 Noroeste 20 Noroeste 0 -- -- 29
2019-06-10 22:00:00 20 10 Norte 20 Noroeste 0 -- -- 26
2019-06-10 21:00:00 22 10 Noroeste 30 Noroeste 0 -- -- 22
2019-06-10 20:00:00 23.7 13 Norte 30 Noroeste 0 -- -- 21
2019-06-10 19:00:00 24.3 13 Noroeste 30 Noroeste 0 -- -- 22
2019-06-10 18:00:00 24.2 14 Norte 34 Noroeste 0 -- -- 24
2019-06-10 17:00:00 23.1 16 Norte 34 Norte 0 -- -- 24
2019-06-10 16:00:00 23 15 Noroeste 33 Oeste 0 -- -- 27
2019-06-10 15:00:00 22.7 11 Noroeste 32 Oeste 0 -- -- 26
2019-06-10 14:00:00 22 7 Norte 22 Norte 0 -- -- 27
2019-06-10 13:00:00 21.2 8 Este 26 Sudeste 0 -- -- 31
2019-06-10 12:00:00 19.7 10 Nordeste 23 Nordeste 0 -- -- 35
2019-06-10 11:00:00 18.2 9 Norte 21 Norte 0 -- -- 41
2019-06-10 10:00:00 16.9 4 Nordeste 14 Nordeste 0 -- -- 50
2019-06-10 09:00:00 15.8 9 Nordeste 19 Nordeste 0 -- -- 53
2019-06-10 08:00:00 14.3 10 Norte 22 Nordeste 0 -- -- 60
2019-06-10 07:00:00 12.9 12 Nordeste 21 Norte 0 -- -- 66
2019-06-10 06:00:00 13.6 6 Norte 12 Norte 0 -- -- 56
2019-06-10 05:00:00 13 3 Nordeste 8 Nordeste 0 -- -- 58
2019-06-10 04:00:00 13.9 2 Sur 14 Norte 0 -- -- 54
2019-06-10 03:00:00 15.5 9 Norte 30 Norte 0 -- -- 49
2019-06-10 02:00:00 16.2 16 Norte 36 Norte 0 -- -- 44
2019-06-10 01:00:00 16.9 19 Norte 35 Norte 0 -- -- 42
2019-06-10 00:00:00 17.9 22 Norte 36 Norte 0 -- -- 39
2019-06-09 23:00:00 19.1 18 Norte 36 Norte 0 -- -- 36
2019-06-09 22:00:00 20.3 15 Noroeste 34 Noroeste 0 -- -- 32
2019-06-09 21:00:00 22.3 17 Noroeste 30 Noroeste 0 -- -- 28
2019-06-09 20:00:00 24 10 Noroeste 32 Oeste 0 -- -- 26
2019-06-09 19:00:00 25 13 Oeste 42 Sudoeste 0 -- -- 23
2019-06-09 18:00:00 26.2 17 Sudoeste 40 Oeste 0 -- -- 20
2019-06-09 17:00:00 25.7 19 Sudoeste 41 Sudoeste 0 -- -- 19
2019-06-09 16:00:00 25.2 19 Sudoeste 48 Sudoeste 0 -- -- 18
2019-06-09 15:00:00 24.4 22 Sudoeste 41 Sudoeste 0 -- -- 16
2019-06-09 14:00:00 23.6 17 Sudoeste 37 Sudoeste 0 -- -- 22
2019-06-09 13:00:00 22.8 21 Sudoeste 40 Sudoeste 0 -- -- 20
2019-06-09 12:00:00 21.4 15 Oeste 32 Oeste 0 -- -- 30
2019-06-09 11:00:00 19.6 14 Sudoeste 26 Sudoeste 0 -- -- 36
2019-06-09 10:00:00 18 4 Sudeste 10 Sudeste 0 -- -- 54
2019-06-09 09:00:00 15.6 6 Nordeste 12 Nordeste 0 -- -- 63
2019-06-09 08:00:00 13.7 6 Nordeste 12 Nordeste 0 -- -- 66
2019-06-09 07:00:00 12.4 4 Nordeste 10 Nordeste 0 -- -- 70
2019-06-09 06:00:00 13.1 4 Nordeste 8 Este 0 -- -- 69
2019-06-09 05:00:00 14.5 4 Este 9 Sudeste 0 -- -- 67
2019-06-09 04:00:00 15.2 4 Sudeste 9 Sur 0 -- -- 65
2019-06-09 03:00:00 16.1 0 Calma 14 Sur 0 -- -- 60
2019-06-09 02:00:00 17.8 10 Sur 22 Sur 0 -- -- 56
2019-06-09 01:00:00 19.7 9 Sudeste 21 Sudeste 0 -- -- 33
2019-06-09 00:00:00 20.9 6 Oeste 19 Oeste 0 -- -- 23
2019-06-08 23:00:00 20.7 8 Oeste 16 Noroeste 0 -- -- 25
2019-06-08 22:00:00 21.5 10 Oeste 23 Oeste 0 -- -- 24
2019-06-08 21:00:00 23.4 12 Oeste 30 Oeste 0 -- -- 21
2019-06-08 20:00:00 25.7 18 Sudoeste 28 Sudoeste 0 -- -- 20
2019-06-08 19:00:00 26.4 13 Oeste 29 Sudoeste 0 -- -- 21
2019-06-08 18:00:00 25.8 18 Sudoeste 31 Sudoeste 0 -- -- 23
2019-06-08 17:00:00 26.3 13 Sudoeste 26 Oeste 0 -- -- 26
2019-06-08 16:00:00 25.9 13 Sur 37 Sudoeste 0 -- -- 28
2019-06-08 15:00:00 24.9 11 Sur 31 Sudeste 0 -- -- 31
2019-06-08 14:00:00 23.8 13 Sur 26 Sudeste 0 -- -- 36
2019-06-08 13:00:00 21.8 12 Sur 26 Este 0 -- -- 38
2019-06-08 12:00:00 19.9 13 Sudeste 25 Sur 0 -- -- 39
2019-06-08 11:00:00 18.5 9 Este 24 Nordeste 0 -- -- 37
2019-06-08 10:00:00 17.6 7 Este 19 Nordeste 0 -- -- 37
2019-06-08 09:00:00 15.8 10 Nordeste 18 Nordeste 0 -- -- 35
2019-06-08 08:00:00 12.3 9 Nordeste 21 Nordeste 0 -- -- 48
2019-06-08 07:00:00 10.8 12 Nordeste 21 Nordeste 0 -- -- 49
2019-06-08 06:00:00 10.2 12 Nordeste 22 Nordeste 0 -- -- 53
2019-06-08 05:00:00 10.2 13 Nordeste 20 Norte 0 -- -- 55
2019-06-08 04:00:00 12.4 10 Nordeste 18 Nordeste 0 -- -- 42
2019-06-08 03:00:00 11.7 8 Este 19 Sudeste 0 -- -- 47
2019-06-08 02:00:00 12.7 9 Nordeste 14 Nordeste 0 -- -- 42
2019-06-08 01:00:00 12.8 7 Nordeste 18 Norte 0 -- -- 42
2019-06-08 00:00:00 13.9 9 Norte 22 Nordeste 0 -- -- 37
2019-06-07 23:00:00 14.8 15 Nordeste 29 Nordeste 0 -- -- 38
2019-06-07 22:00:00 16.4 12 Norte 23 Nordeste 0 -- -- 36
2019-06-07 21:00:00 18.3 13 Norte 26 Nordeste 0 -- -- 31
2019-06-07 20:00:00 20.6 8 Norte 19 Nordeste 0 -- -- 29
2019-06-07 19:00:00 20.2 10 Norte 22 Norte 0 -- -- 29
2019-06-07 18:00:00 20.1 11 Noroeste 25 Noroeste 0 -- -- 29
2019-06-07 17:00:00 19.4 13 Norte 31 Noroeste 0 -- -- 30
2019-06-07 16:00:00 18.5 10 Norte 27 Norte 0 -- -- 32
2019-06-07 15:00:00 17.8 9 Noroeste 39 Oeste 0 -- -- 33
2019-06-07 14:00:00 16.4 12 Norte 37 Oeste 0 -- -- 37
2019-06-07 13:00:00 15.3 16 Noroeste 32 Noroeste 0 -- -- 40
2019-06-07 12:00:00 13.8 14 Noroeste 35 Noroeste 0 -- -- 45
2019-06-07 11:00:00 12.7 16 Noroeste 38 Noroeste 0 -- -- 48
2019-06-07 10:00:00 11.4 18 Norte 37 Norte 0 -- -- 52
2019-06-07 09:00:00 10.1 13 Noroeste 36 Noroeste 0 -- -- 56
2019-06-07 08:00:00 9 21 Noroeste 32 Noroeste 0 -- -- 61
2019-06-07 07:00:00 8 9 Noroeste 30 Oeste 0 -- -- 66
2019-06-07 06:00:00 8.9 8 Noroeste 28 Oeste 0 -- -- 64
2019-06-07 05:00:00 10.3 5 Sudoeste 22 Noroeste 0.2 -- -- 86
2019-06-07 04:00:00 11.3 7 Oeste 49 Sudoeste 0.8 -- -- 90
2019-06-07 03:00:00 12.1 20 Sudoeste 46 Sudoeste 0 -- -- 90
2019-06-07 02:00:00 12.2 15 Oeste 40 Oeste 0.4 -- -- 88
2019-06-07 01:00:00 15.5 17 Sudoeste 43 Sudoeste 0 -- -- 57
2019-06-07 00:00:00 16.6 17 Sudoeste 34 Sudoeste 0 -- -- 47
2019-06-06 23:00:00 16.8 12 Sudoeste 30 Sudoeste 0 -- -- 39
2019-06-06 22:00:00 17.5 19 Sudoeste 48 Sudoeste 0 -- -- 35
2019-06-06 21:00:00 18.8 27 Sudoeste 46 Sudoeste 0 -- -- 33
2019-06-06 20:00:00 20.5 24 Sudoeste 50 Sudoeste 0 -- -- 29
2019-06-06 19:00:00 21.1 24 Sudoeste 44 Sudoeste 0 -- -- 28
2019-06-06 18:00:00 21.4 23 Sudoeste 40 Sudoeste 0 -- -- 27
2019-06-06 17:00:00 21.3 22 Sudoeste 45 Oeste 0 -- -- 24
2019-06-06 16:00:00 20.3 26 Sudoeste 40 Sudoeste 0 -- -- 25
2019-06-06 15:00:00 19.3 21 Sudoeste 46 Sudoeste 0 -- -- 28
2019-06-06 14:00:00 18.5 20 Sudoeste 35 Sudoeste 0 -- -- 24
2019-06-06 13:00:00 17.2 12 Sudoeste 30 Sudoeste 0 -- -- 33
2019-06-06 12:00:00 16 16 Sudoeste 27 Sudoeste 0 -- -- 38
2019-06-06 11:00:00 14.3 13 Sudoeste 24 Sudoeste 0 -- -- 44
2019-06-06 10:00:00 13.5 9 Sudoeste 18 Sudoeste 0 -- -- 47
2019-06-06 09:00:00 12.4 3 Sudeste 9 Este 0 -- -- 52
2019-06-06 08:00:00 10.3 4 Este 8 Nordeste 0 -- -- 60
2019-06-06 07:00:00 8.2 4 Nordeste 8 Nordeste 0 -- -- 66
2019-06-06 06:00:00 8.5 2 Sudeste 5 Sur 0 -- -- 60
2019-06-06 05:00:00 9.5 2 Este 7 Norte 0 -- -- 58
2019-06-06 04:00:00 10.4 2 Este 14 Norte 0 -- -- 55
2019-06-06 03:00:00 10.5 2 Noroeste 5 Sudoeste 0 -- -- 52
2019-06-06 02:00:00 12.4 3 Oeste 19 Norte 0 -- -- 46
2019-06-06 01:00:00 13.3 5 Norte 20 Norte 0 -- -- 43
2019-06-06 00:00:00 14.2 8 Norte 15 Noroeste 0 -- -- 42
2019-06-05 23:00:00 15.3 5 Noroeste 17 Noroeste 0 -- -- 35
2019-06-05 22:00:00 16 9 Noroeste 18 Noroeste 0 -- -- 34
2019-06-05 21:00:00 17.3 10 Noroeste 26 Noroeste 0 -- -- 31
2019-06-05 20:00:00 18.4 10 Noroeste 35 Noroeste 0 -- -- 29
2019-06-05 19:00:00 19.3 14 Noroeste 30 Noroeste 0 -- -- 27
2019-06-05 18:00:00 19.4 19 Noroeste 37 Noroeste 0 -- -- 28
2019-06-05 17:00:00 19.5 18 Oeste 38 Noroeste 0 -- -- 27
2019-06-05 16:00:00 19.1 20 Noroeste 51 Noroeste 0 -- -- 28
2019-06-05 15:00:00 18.3 19 Noroeste 39 Noroeste 0 -- -- 32
2019-06-05 14:00:00 16.3 20 Noroeste 41 Noroeste 0 -- -- 36
2019-06-05 13:00:00 15.3 17 Noroeste 41 Oeste 0 -- -- 41
2019-06-05 12:00:00 14.4 32 Noroeste 60 Noroeste 0 -- -- 45
2019-06-05 11:00:00 13.4 15 Oeste 34 Noroeste 0 -- -- 49
2019-06-05 10:00:00 12.4 15 Norte 49 Noroeste 0 -- -- 52
2019-06-05 09:00:00 11.1 23 Noroeste 47 Noroeste 0 -- -- 59
2019-06-05 08:00:00 10.5 22 Noroeste 41 Noroeste 0 -- -- 62
2019-06-05 07:00:00 10.6 13 Noroeste 31 Norte 0 -- -- 64
2019-06-05 06:00:00 11.4 17 Norte 39 Norte 0 -- -- 62
2019-06-05 05:00:00 12.4 14 Noroeste 28 Noroeste 0 -- -- 60
2019-06-05 04:00:00 14.4 13 Oeste 27 Noroeste 0 -- -- 54
2019-06-05 03:00:00 15.7 7 Oeste 14 Noroeste 0 -- -- 57
2019-06-05 02:00:00 15.7 4 Oeste 9 Sudoeste 0 -- -- 60
2019-06-05 01:00:00 16.9 5 Oeste 12 Noroeste 0 -- -- 57
2019-06-05 00:00:00 17.9 3 Sudoeste 14 Norte 0 -- -- 55
2019-06-04 23:00:00 19.1 8 Norte 19 Noroeste 0 -- -- 53
2019-06-04 22:00:00 20.7 8 Norte 22 Sudoeste 0 -- -- 48
2019-06-04 21:00:00 22.1 10 Oeste 29 Oeste 0 -- -- 42
2019-06-04 20:00:00 23.2 17 Oeste 37 Oeste 0 -- -- 40
2019-06-04 19:00:00 25 21 Oeste 48 Oeste 0 -- -- 36
2019-06-04 18:00:00 26.3 23 Oeste 41 Sudoeste 0 -- -- 29
2019-06-04 17:00:00 27.1 21 Oeste 44 Sudoeste 0 -- -- 27
2019-06-04 16:00:00 26.3 24 Sudoeste 45 Sudoeste 0 -- -- 32
2019-06-04 15:00:00 25.9 24 Sudoeste 46 Sudoeste 0 -- -- 31
2019-06-04 14:00:00 24.9 25 Sudoeste 45 Sur 0 -- -- 31
2019-06-04 13:00:00 23.9 22 Sudoeste 37 Sudoeste 0 -- -- 34
2019-06-04 12:00:00 22.5 18 Sudoeste 36 Sudoeste 0 -- -- 37
2019-06-04 11:00:00 21.1 17 Sudoeste 33 Sudoeste 0 -- -- 48
2019-06-04 10:00:00 19.9 16 Sudoeste 34 Oeste 0 -- -- 53
2019-06-04 09:00:00 18.1 13 Sudoeste 21 Sudoeste 0 -- -- 61
2019-06-04 08:00:00 16.7 10 Sudoeste 19 Sudoeste 0 -- -- 70
2019-06-04 07:00:00 15.3 9 Sudoeste 18 Sudoeste 0 -- -- 66
2019-06-04 06:00:00 16.9 13 Sudoeste 20 Sudoeste 0 -- -- 56
2019-06-04 05:00:00 17.6 4 Sudoeste 15 Sudoeste 0 -- -- 43
2019-06-04 04:00:00 18.2 8 Sudoeste 13 Sudoeste 0 -- -- 37
2019-06-04 03:00:00 19.5 4 Oeste 10 Sudoeste 0 -- -- 31
2019-06-04 02:00:00 19.3 3 Oeste 5 Sudoeste 0 -- -- 30
2019-06-04 01:00:00 21.2 3 Oeste 10 Noroeste 0 -- -- 28
2019-06-04 00:00:00 22.4 3 Noroeste 11 Noroeste 0 -- -- 26
2019-06-03 23:00:00 24.1 3 Norte 19 Oeste 0 -- -- 24
2019-06-03 22:00:00 25.6 6 Oeste 27 Oeste 0 -- -- 22
2019-06-03 21:00:00 27.9 16 Oeste 34 Oeste 0 -- -- 19
2019-06-03 20:00:00 29.6 21 Oeste 38 Oeste 0 -- -- 19
2019-06-03 19:00:00 31 16 Oeste 39 Oeste 0 -- -- 18
2019-06-03 18:00:00 30.9 24 Oeste 50 Sudoeste 0 -- -- 16
2019-06-03 17:00:00 30.6 30 Oeste 51 Sudoeste 0 -- -- 17
2019-06-03 16:00:00 31.1 24 Oeste 50 Sudoeste 0 -- -- 18
2019-06-03 15:00:00 30.5 28 Sudoeste 51 Sudoeste 0 -- -- 19
2019-06-03 14:00:00 30.4 22 Sudoeste 43 Sur 0 -- -- 20
2019-06-03 13:00:00 28.3 10 Oeste 26 Sur 0 -- -- 25
2019-06-03 12:00:00 25.7 7 Sur 20 Sur 0 -- -- 29
2019-06-03 11:00:00 24.4 6 Este 17 Este 0 -- -- 32
2019-06-03 10:00:00 22 6 Este 13 Este 0 -- -- 37
2019-06-03 09:00:00 21.4 7 Este 15 Este 0 -- -- 38
2019-06-03 08:00:00 19.7 6 Este 13 Este 0 -- -- 40
2019-06-03 07:00:00 19.7 10 Nordeste 16 Nordeste 0 -- -- 37
2019-06-03 06:00:00 19.7 7 Nordeste 14 Nordeste 0 -- -- 39
2019-06-03 05:00:00 20.6 6 Nordeste 13 Nordeste 0 -- -- 35
2019-06-03 04:00:00 21.6 7 Nordeste 15 Nordeste 0 -- -- 33
2019-06-03 03:00:00 22.1 7 Este 12 Norte 0 -- -- 31
2019-06-03 02:00:00 21.9 3 Norte 8 Oeste 0 -- -- 31
2019-06-03 01:00:00 24.4 5 Nordeste 11 Noroeste 0 -- -- 28
2019-06-03 00:00:00 25.7 4 Norte 15 Norte 0 -- -- 25
2019-06-02 23:00:00 26.2 8 Norte 15 Noroeste 0 -- -- 25
2019-06-02 22:00:00 27.1 6 Oeste 17 Oeste 0 -- -- 24
2019-06-02 21:00:00 28.6 14 Oeste 25 Oeste 0 -- -- 22
2019-06-02 20:00:00 29.8 13 Oeste 29 Sudoeste 0 -- -- 22
2019-06-02 19:00:00 30.9 14 Sudoeste 31 Sudoeste 0 -- -- 20
2019-06-02 18:00:00 31.6 17 Sudoeste 35 Sudoeste 0 -- -- 20
2019-06-02 17:00:00 32.8 13 Sudoeste 28 Sudoeste 0 -- -- 20
2019-06-02 16:00:00 32.3 18 Sudoeste 29 Sudoeste 0 -- -- 20
2019-06-02 15:00:00 30.9 9 Sudoeste 23 Sudoeste 0 -- -- 23
2019-06-02 14:00:00 29.5 6 Sur 17 Sur 0 -- -- 25
2019-06-02 13:00:00 28 8 Sur 17 Sur 0 -- -- 28
2019-06-02 12:00:00 25.6 7 Sudeste 16 Sudeste 0 -- -- 31
2019-06-02 11:00:00 23.3 8 Este 21 Sudeste 0 -- -- 34
2019-06-02 10:00:00 21.8 10 Sudeste 17 Sudeste 0 -- -- 36
2019-06-02 09:00:00 19.9 7 Nordeste 14 Nordeste 0 -- -- 40
2019-06-02 08:00:00 17.4 10 Nordeste 15 Nordeste 0 -- -- 48
2019-06-02 07:00:00 16.4 6 Nordeste 15 Nordeste 0 -- -- 53
2019-06-02 06:00:00 17.7 9 Nordeste 13 Nordeste 0 -- -- 43
2019-06-02 05:00:00 18.8 8 Nordeste 14 Nordeste 0 -- -- 36
2019-06-02 04:00:00 20.5 6 Este 15 Sudeste 0 -- -- 33
2019-06-02 03:00:00 21.9 6 Sudeste 11 Sudeste 0 -- -- 31
2019-06-02 02:00:00 21.1 8 Este 17 Sudeste 0 -- -- 35
2019-06-02 01:00:00 21.1 3 Norte 7 Noroeste 0 -- -- 35
2019-06-02 00:00:00 22.2 2 Norte 5 Nordeste 0 -- -- 32
2019-06-01 23:00:00 23.9 0 Calma 9 Sudoeste 0 -- -- 28
2019-06-01 22:00:00 26.3 6 Sudoeste 14 Sudoeste 0 -- -- 22
2019-06-01 21:00:00 29.3 9 Sudoeste 21 Sudoeste 0 -- -- 20
2019-06-01 20:00:00 31.3 10 Sudoeste 22 Oeste 0 -- -- 18
2019-06-01 19:00:00 32.2 7 Sudoeste 22 Sudoeste 0 -- -- 19
2019-06-01 18:00:00 32.1 10 Oeste 19 Sudoeste 0 -- -- 19
2019-06-01 17:00:00 31.6 9 Sur 21 Sur 0 -- -- 20
2019-06-01 16:00:00 31 10 Sudoeste 21 Sur 0 -- -- 20
2019-06-01 15:00:00 29.1 10 Sur 19 Sur 0 -- -- 24
2019-06-01 14:00:00 27.7 9 Sudeste 20 Sur 0 -- -- 28
2019-06-01 13:00:00 26.3 7 Sur 16 Sudeste 0 -- -- 31
2019-06-01 12:00:00 24 6 Sudeste 15 Este 0 -- -- 35
2019-06-01 11:00:00 22 7 Sudeste 13 Este 0 -- -- 40
2019-06-01 10:00:00 20.4 7 Sudeste 15 Sudeste 0 -- -- 44
2019-06-01 09:00:00 19 8 Este 15 Este 0 -- -- 47
2019-06-01 08:00:00 16.5 7 Nordeste 14 Nordeste 0 -- -- 51
2019-06-01 07:00:00 14.8 8 Nordeste 13 Nordeste 0 -- -- 48
2019-06-01 06:00:00 15.3 7 Nordeste 12 Nordeste 0 -- -- 46
2019-06-01 05:00:00 16.3 7 Este 13 Nordeste 0 -- -- 44
2019-06-01 04:00:00 17.2 6 Nordeste 12 Sudeste 0 -- -- 42
2019-06-01 03:00:00 18.5 7 Este 12 Este 0 -- -- 36
2019-06-01 02:00:00 19.7 5 Este 8 Sudeste 0 -- -- 36
2019-06-01 01:00:00 19.6 0 Calma 8 Sudoeste 0 -- -- 32
2019-06-01 00:00:00 20.9 3 Este 8 Este 0 -- -- 34
2019-05-31 23:00:00 22.6 0 Calma 6 Sudoeste 0 -- -- 28
2019-05-31 22:00:00 25.6 3 Sur 9 Sur 0 -- -- 24
2019-05-31 21:00:00 28 6 Sur 16 Sur 0 -- -- 21
2019-05-31 20:00:00 29.8 10 Sur 25 Sudeste 0 -- -- 21
2019-05-31 19:00:00 30.4 9 Sudeste 24 Sudoeste 0 -- -- 22
2019-05-31 18:00:00 31 5 Este 18 Este 0 -- -- 22
2019-05-31 17:00:00 30.3 9 Sudeste 21 Sudeste 0 -- -- 23
2019-05-31 16:00:00 29.4 4 Este 23 Este 0 -- -- 25
2019-05-31 15:00:00 28.4 8 Sudeste 21 Sudoeste 0 -- -- 26
2019-05-31 14:00:00 27.4 8 Oeste 19 Sudoeste 0 -- -- 28
2019-05-31 13:00:00 25.9 8 Sudeste 20 Sudeste 0 -- -- 31
2019-05-31 12:00:00 24.3 9 Sur 21 Sudeste 0 -- -- 31
2019-05-31 11:00:00 22.8 8 Este 15 Este 0 -- -- 34
2019-05-31 10:00:00 21.5 7 Este 17 Este 0 -- -- 38
2019-05-31 09:00:00 18.8 7 Nordeste 15 Nordeste 0 -- -- 44
2019-05-31 08:00:00 16.2 9 Nordeste 14 Norte 0 -- -- 48
2019-05-31 07:00:00 15.1 5 Nordeste 11 Este 0 -- -- 53
2019-05-31 06:00:00 16.2 7 Nordeste 17 Nordeste 0 -- -- 46
2019-05-31 05:00:00 16.7 8 Nordeste 17 Nordeste 0 -- -- 46
2019-05-31 04:00:00 18.1 10 Nordeste 20 Nordeste 0 -- -- 42
2019-05-31 03:00:00 19.4 15 Nordeste 28 Nordeste 0 -- -- 39
2019-05-31 02:00:00 20.6 13 Nordeste 23 Nordeste 0 -- -- 31
2019-05-31 01:00:00 20.8 12 Nordeste 21 Nordeste 0 -- -- 29
2019-05-31 00:00:00 21.3 10 Nordeste 18 Nordeste 0 -- -- 30
2019-05-30 23:00:00 22.4 9 Nordeste 15 Nordeste 0 -- -- 33
2019-05-30 22:00:00 24.2 2 Nordeste 5 Nordeste 0 -- -- 27
2019-05-30 21:00:00 27.8 4 Este 16 Este 0 -- -- 23
2019-05-30 20:00:00 29.5 6 Este 19 Sur 0 -- -- 22
2019-05-30 19:00:00 29.4 10 Sudeste 19 Sudeste 0 -- -- 22
2019-05-30 18:00:00 29.5 5 Nordeste 25 Sudoeste 0 -- -- 23
2019-05-30 17:00:00 28.9 8 Este 25 Este 0 -- -- 22
2019-05-30 16:00:00 27.9 10 Este 27 Nordeste 0 -- -- 22
2019-05-30 15:00:00 26.5 13 Este 30 Sudeste 0 -- -- 24
2019-05-30 14:00:00 24.9 6 Sudeste 23 Este 0 -- -- 28
2019-05-30 13:00:00 23.7 6 Sudeste 19 Sudeste 0 -- -- 31
2019-05-30 12:00:00 21.4 7 Sudeste 15 Sur 0 -- -- 35
2019-05-30 11:00:00 18.8 3 Norte 14 Este 0 -- -- 43
2019-05-30 10:00:00 17.1 6 Este 18 Sudeste 0 -- -- 46
2019-05-30 09:00:00 14.8 7 Nordeste 16 Este 0 -- -- 53
2019-05-30 08:00:00 13.2 7 Este 13 Nordeste 0 -- -- 57
2019-05-30 07:00:00 11.6 7 Nordeste 12 Este 0 -- -- 63
2019-05-30 06:00:00 12 7 Este 13 Este 0 -- -- 58
2019-05-30 05:00:00 12.7 6 Nordeste 14 Nordeste 0 -- -- 59
2019-05-30 04:00:00 13.4 8 Nordeste 17 Nordeste 0 -- -- 62
2019-05-30 03:00:00 14.7 11 Nordeste 18 Este 0 -- -- 52
2019-05-30 02:00:00 15.4 8 Este 24 Este 0 -- -- 51
2019-05-30 01:00:00 16.6 9 Este 19 Este 0 -- -- 48
2019-05-30 00:00:00 17.6 6 Este 21 Norte 0 -- -- 41
2019-05-29 23:00:00 18.9 16 Nordeste 27 Norte 0 -- -- 42
2019-05-29 22:00:00 19.9 17 Norte 34 Nordeste 0 -- -- 38
2019-05-29 21:00:00 21.6 19 Norte 35 Norte 0 -- -- 34
2019-05-29 20:00:00 23.5 21 Norte 37 Norte 0 -- -- 30
2019-05-29 19:00:00 24.8 20 Norte 32 Norte 0 -- -- 28
2019-05-29 18:00:00 25.6 13 Norte 30 Norte 0 -- -- 29
2019-05-29 17:00:00 25.8 8 Sur 22 Sur 0 -- -- 29
2019-05-29 16:00:00 24.1 8 Sur 19 Sudeste 0 -- -- 31
2019-05-29 15:00:00 22.5 8 Este 21 Sur 0 -- -- 33
2019-05-29 14:00:00 20.9 9 Sudeste 19 Sudeste 0 -- -- 35
2019-05-29 13:00:00 18.9 5 Sudeste 16 Nordeste 0 -- -- 38
2019-05-29 12:00:00 16.6 7 Sudeste 18 Este 0 -- -- 42
2019-05-29 11:00:00 14.3 8 Sudeste 17 Este 0 -- -- 47
2019-05-29 10:00:00 12.9 8 Este 19 Nordeste 0 -- -- 51
2019-05-29 09:00:00 10.7 11 Este 25 Este 0 -- -- 57
2019-05-29 08:00:00 9.6 8 Este 20 Este 0 -- -- 61
2019-05-29 07:00:00 8.2 10 Este 23 Este 0 -- -- 65
2019-05-29 06:00:00 8.7 5 Este 19 Este 0 -- -- 64
2019-05-29 05:00:00 9.3 8 Este 13 Este 0 -- -- 62
2019-05-29 04:00:00 10.3 6 Este 13 Este 0 -- -- 58
2019-05-29 03:00:00 11.6 6 Este 15 Este 0 -- -- 54
2019-05-29 02:00:00 13.2 6 Este 12 Sudeste 0 -- -- 50
2019-05-29 01:00:00 14 7 Este 15 Nordeste 0 -- -- 49
2019-05-29 00:00:00 15.4 8 Este 15 Este 0 -- -- 44
2019-05-28 23:00:00 17 10 Norte 26 Norte 0 -- -- 40
2019-05-28 22:00:00 17.7 18 Norte 41 Norte 0 -- -- 38
2019-05-28 21:00:00 19.2 23 Norte 44 Norte 0 -- -- 34
2019-05-28 20:00:00 21 26 Norte 43 Norte 0 -- -- 31
2019-05-28 19:00:00 22 26 Norte 43 Norte 0 -- -- 31
2019-05-28 18:00:00 23.3 22 Norte 40 Norte 0 -- -- 26
2019-05-28 17:00:00 23.4 19 Norte 35 Nordeste 0 -- -- 26
2019-05-28 16:00:00 23.7 17 Norte 34 Norte 0 -- -- 23
2019-05-28 15:00:00 22.6 12 Norte 31 Norte 0 -- -- 26
2019-05-28 14:00:00 22.4 13 Norte 27 Norte 0 -- -- 25
2019-05-28 13:00:00 21.1 9 Nordeste 23 Nordeste 0 -- -- 26
2019-05-28 12:00:00 19.1 8 Sur 17 Sur 0 -- -- 44
2019-05-28 11:00:00 17.2 4 Sudeste 15 Sur 0 -- -- 50
2019-05-28 10:00:00 15.7 4 Sudoeste 9 Sudeste 0 -- -- 58
2019-05-28 09:00:00 13.8 6 Este 12 Sudeste 0 -- -- 63
2019-05-28 08:00:00 11.7 2 Este 9 Este 0 -- -- 69
2019-05-28 07:00:00 11.6 6 Este 13 Este 0 -- -- 70
2019-05-28 06:00:00 12.1 7 Este 17 Este 0 -- -- 69
2019-05-28 05:00:00 12.7 9 Este 16 Este 0 -- -- 67
2019-05-28 04:00:00 13.6 9 Este 26 Este 0 -- -- 63
2019-05-28 03:00:00 14.5 15 Este 29 Este 0 -- -- 60
2019-05-28 02:00:00 15.9 13 Este 25 Este 0 -- -- 56
2019-05-28 01:00:00 17.6 14 Este 29 Este 0 -- -- 50
2019-05-28 00:00:00 18.9 7 Nordeste 15 Nordeste 0 -- -- 49
2019-05-27 23:00:00 20.4 6 Norte 14 Nordeste 0 -- -- 42
2019-05-27 22:00:00 21.4 10 Norte 21 Norte 0 -- -- 40
2019-05-27 21:00:00 23.4 10 Norte 29 Norte 0 -- -- 35
2019-05-27 20:00:00 24.8 13 Norte 28 Norte 0 -- -- 32
2019-05-27 19:00:00 25.6 15 Norte 32 Norte 0 -- -- 30
2019-05-27 18:00:00 25.7 14 Norte 29 Norte 0 -- -- 30
2019-05-27 17:00:00 25.6 15 Norte 34 Nordeste 0 -- -- 31
2019-05-27 16:00:00 25.4 17 Norte 34 Norte 0 -- -- 31
2019-05-27 15:00:00 24.9 16 Norte 34 Norte 0 -- -- 33
2019-05-27 14:00:00 24.4 21 Norte 34 Norte 0 -- -- 32
2019-05-27 13:00:00 24.2 15 Norte 30 Nordeste 0 -- -- 33
2019-05-27 12:00:00 22.6 9 Nordeste 16 Sudeste 0 -- -- 39
2019-05-27 11:00:00 20.2 8 Sur 13 Oeste 0 -- -- 45
2019-05-27 10:00:00 18.4 4 Sur 10 Sur 0 -- -- 49
2019-05-27 09:00:00 17 3 Sur 8 Sudoeste 0 -- -- 53
2019-05-27 08:00:00 14 3 Sudoeste 6 Sur 0 -- -- 62
2019-05-27 07:00:00 13.5 2 Este 9 Nordeste 0 -- -- 60
2019-05-27 06:00:00 13 4 Nordeste 8 Nordeste 0 -- -- 63
2019-05-27 05:00:00 13 0 Calma 4 Norte 0 -- -- 62
2019-05-27 04:00:00 13.7 0 Calma 7 Este 0 -- -- 54
2019-05-27 03:00:00 14.9 0 Calma 18 Sudoeste 0 -- -- 48
2019-05-27 02:00:00 16.9 7 Nordeste 12 Nordeste 0 -- -- 44
2019-05-27 01:00:00 18 3 Nordeste 11 Norte 0 -- -- 41
2019-05-27 00:00:00 19.3 8 Norte 17 Norte 0 -- -- 39
2019-05-26 23:00:00 19.5 12 Norte 32 Norte 0 -- -- 41
2019-05-26 22:00:00 20.4 15 Norte 41 Norte 0 -- -- 37
2019-05-26 21:00:00 21.9 19 Norte 41 Norte 0 -- -- 35
2019-05-26 20:00:00 24 20 Norte 36 Norte 0 -- -- 31
2019-05-26 19:00:00 24.9 18 Norte 37 Norte 0 -- -- 31
2019-05-26 18:00:00 24.6 22 Norte 37 Norte 0 -- -- 34
2019-05-26 17:00:00 24.8 18 Norte 37 Norte 0 -- -- 34
2019-05-26 16:00:00 24.6 10 Sudeste 26 Noroeste 0 -- -- 32
2019-05-26 15:00:00 23.1 15 Norte 29 Nordeste 0 -- -- 35
2019-05-26 14:00:00 22.3 11 Norte 25 Norte 0 -- -- 34
2019-05-26 13:00:00 20.6 6 Norte 17 Sur 0 -- -- 36
2019-05-26 12:00:00 17.5 8 Sur 18 Sur 0 -- -- 48
2019-05-26 11:00:00 15 5 Oeste 10 Sudoeste 0 -- -- 53
2019-05-26 10:00:00 13.3 4 Sur 10 Oeste 0 -- -- 58
2019-05-26 09:00:00 11.7 6 Sudeste 14 Este 0 -- -- 64
2019-05-26 08:00:00 9.9 2 Este 6 Nordeste 0 -- -- 73
2019-05-26 07:00:00 8 0 Calma 5 Sudeste 0 -- -- 77
2019-05-26 06:00:00 9.2 2 Este 9 Este 0 -- -- 72
2019-05-26 05:00:00 9.8 6 Este 17 Este 0 -- -- 71
2019-05-26 04:00:00 10.4 7 Este 17 Este 0 -- -- 69
2019-05-26 03:00:00 11.7 6 Este 15 Nordeste 0 -- -- 64
2019-05-26 02:00:00 13.2 7 Este 22 Nordeste 0 -- -- 59
2019-05-26 01:00:00 16.2 10 Nordeste 30 Nordeste 0 -- -- 37
2019-05-26 00:00:00 17.2 15 Nordeste 34 Norte 0 -- -- 34
2019-05-25 23:00:00 16.6 18 Norte 32 Norte 0 -- -- 41
2019-05-25 22:00:00 17.7 19 Norte 36 Norte 0 -- -- 40
2019-05-25 21:00:00 19.5 20 Norte 40 Norte 0 -- -- 39
2019-05-25 20:00:00 21.3 22 Norte 34 Norte 0 -- -- 34
2019-05-25 19:00:00 22.4 18 Norte 31 Norte 0 -- -- 33
2019-05-25 18:00:00 23.3 16 Nordeste 31 Nordeste 0 -- -- 32
2019-05-25 17:00:00 23 7 Nordeste 22 Nordeste 0 -- -- 34
2019-05-25 16:00:00 22.6 7 Este 22 Norte 0 -- -- 34
2019-05-25 15:00:00 21.8 6 Norte 20 Norte 0 -- -- 36
2019-05-25 14:00:00 20.2 9 Norte 21 Norte 0 -- -- 38
2019-05-25 13:00:00 18.9 7 Nordeste 22 Norte 0 -- -- 42
2019-05-25 12:00:00 16.9 11 Norte 24 Nordeste 0 -- -- 46
2019-05-25 11:00:00 15.8 13 Nordeste 24 Nordeste 0 -- -- 48
2019-05-25 10:00:00 14.8 13 Norte 22 Nordeste 0 -- -- 50
2019-05-25 09:00:00 12.1 3 Sudoeste 8 Sudoeste 0 -- -- 63
2019-05-25 08:00:00 10.1 3 Oeste 10 Noroeste 0 -- -- 68
2019-05-25 07:00:00 9.2 5 Norte 14 Noroeste 0 -- -- 69
2019-05-25 06:00:00 8.2 3 Noroeste 5 Norte 0 -- -- 70
2019-05-25 05:00:00 9.7 3 Sur 17 Nordeste 0 -- -- 66
2019-05-25 04:00:00 10.6 7 Nordeste 14 Nordeste 0 -- -- 65
2019-05-25 03:00:00 11.5 6 Norte 15 Nordeste 0 -- -- 64
2019-05-25 02:00:00 12.1 9 Nordeste 22 Norte 0 -- -- 61
2019-05-25 01:00:00 12.9 12 Norte 25 Norte 0 -- -- 56
2019-05-25 00:00:00 13.7 10 Este 32 Nordeste 0 -- -- 51
2019-05-24 23:00:00 14.8 18 Nordeste 35 Norte 0 -- -- 49
2019-05-24 22:00:00 15.7 20 Norte 40 Norte 0 -- -- 44
2019-05-24 21:00:00 17.1 22 Norte 46 Nordeste 0 -- -- 42
2019-05-24 20:00:00 18.8 27 Norte 44 Nordeste 0 -- -- 38
2019-05-24 19:00:00 20.9 19 Norte 43 Norte 0 -- -- 34
2019-05-24 18:00:00 22.2 22 Norte 37 Nordeste 0 -- -- 29
2019-05-24 17:00:00 22.1 22 Norte 41 Norte 0 -- -- 32
2019-05-24 16:00:00 21.8 22 Norte 35 Nordeste 0 -- -- 35
2019-05-24 15:00:00 21.2 20 Norte 36 Nordeste 0 -- -- 40
2019-05-24 14:00:00 20.8 17 Norte 35 Nordeste 0 -- -- 45
2019-05-24 13:00:00 19.1 19 Norte 36 Nordeste 0 -- -- 49
2019-05-24 12:00:00 18.9 19 Norte 32 Nordeste 0 -- -- 52
2019-05-24 11:00:00 17.6 21 Norte 40 Norte 0 -- -- 55
2019-05-24 10:00:00 16.6 22 Norte 39 Norte 0 -- -- 58
2019-05-24 09:00:00 16.6 10 Nordeste 30 Nordeste 0 -- -- 60
2019-05-24 08:00:00 16.3 11 Norte 27 Nordeste 0 -- -- 61
2019-05-24 07:00:00 15.4 8 Norte 18 Nordeste 0 -- -- 62
2019-05-24 06:00:00 15.9 12 Norte 19 Norte 0 -- -- 60
2019-05-24 05:00:00 15.8 4 Nordeste 9 Nordeste 0 -- -- 59
2019-05-24 04:00:00 16.4 3 Este 18 Norte 0 -- -- 54
2019-05-24 03:00:00 17.5 12 Norte 27 Norte 0 -- -- 51
2019-05-24 02:00:00 17.9 12 Norte 31 Norte 0 -- -- 49
2019-05-24 01:00:00 19.1 18 Norte 31 Norte 0 -- -- 43
2019-05-24 00:00:00 20.3 14 Norte 34 Norte 0 -- -- 35
2019-05-23 23:00:00 21.4 15 Norte 26 Norte 0 -- -- 32
2019-05-23 22:00:00 22.4 10 Noroeste 19 Noroeste 0 -- -- 33
2019-05-23 21:00:00 23.1 11 Oeste 28 Sudoeste 0 -- -- 27
2019-05-23 20:00:00 26.2 14 Oeste 32 Sudoeste 0 -- -- 24
2019-05-23 19:00:00 27.1 17 Sudoeste 31 Oeste 0 -- -- 24
2019-05-23 18:00:00 27.3 17 Sudoeste 40 Oeste 0 -- -- 23
2019-05-23 17:00:00 26.9 21 Sudoeste 37 Oeste 0 -- -- 24
2019-05-23 16:00:00 26.6 22 Sudoeste 39 Oeste 0 -- -- 27
2019-05-23 15:00:00 25.5 23 Oeste 41 Sudoeste 0 -- -- 29
2019-05-23 14:00:00 25.4 12 Sudoeste 43 Sudoeste 0 -- -- 33
2019-05-23 13:00:00 23.2 9 Sudoeste 21 Sudoeste 0 -- -- 37
2019-05-23 12:00:00 21.7 8 Sur 13 Sudeste 0 -- -- 39
2019-05-23 11:00:00 20.5 2 Sudoeste 9 Este 0 -- -- 41
2019-05-23 10:00:00 19.4 4 Sudeste 14 Sudeste 0 -- -- 44
2019-05-23 09:00:00 18.6 4 Este 9 Este 0 -- -- 44
2019-05-23 08:00:00 15.3 0 Calma 8 Noroeste 0 -- -- 56
2019-05-23 07:00:00 15.5 0 Calma 10 Nordeste 0 -- -- 50
2019-05-23 06:00:00 16.2 5 Nordeste 7 Norte 0 -- -- 48
2019-05-23 05:00:00 16.8 3 Norte 8 Nordeste 0 -- -- 45
2019-05-23 04:00:00 16.9 7 Sudeste 13 Norte 0 -- -- 46
2019-05-23 03:00:00 18.7 9 Norte 20 Nordeste 0 -- -- 40
2019-05-23 02:00:00 19.4 12 Norte 24 Norte 0 -- -- 38
2019-05-23 01:00:00 17.6 3 Norte 8 Nordeste 0 -- -- 46
2019-05-23 00:00:00 18.4 2 Norte 10 Oeste 0 -- -- 45
2019-05-22 23:00:00 20 4 Noroeste 10 Noroeste 0 -- -- 41
2019-05-22 22:00:00 21.1 4 Oeste 12 Sudoeste 0 -- -- 38
2019-05-22 21:00:00 23.1 7 Sudoeste 21 Sudoeste 0 -- -- 33
2019-05-22 20:00:00 24.9 12 Sudoeste 27 Oeste 0 -- -- 30
2019-05-22 19:00:00 25.5 11 Sudoeste 24 Oeste 0 -- -- 29
2019-05-22 18:00:00 26 6 Sur 22 Sudoeste 0 -- -- 27
2019-05-22 17:00:00 26.5 9 Sudoeste 29 Sudoeste 0 -- -- 28
2019-05-22 16:00:00 26 9 Sur 24 Sudoeste 0 -- -- 28
2019-05-22 15:00:00 25.5 8 Oeste 23 Sudoeste 0 -- -- 29
2019-05-22 14:00:00 24.1 9 Oeste 27 Sudoeste 0 -- -- 31
2019-05-22 13:00:00 22.9 9 Sur 18 Sudoeste 0 -- -- 34
2019-05-22 12:00:00 21.1 6 Sur 15 Sur 0 -- -- 40
2019-05-22 11:00:00 18.6 6 Sur 13 Sur 0 -- -- 45
2019-05-22 10:00:00 17.5 5 Sudeste 14 Sudeste 0 -- -- 47
2019-05-22 09:00:00 15.2 8 Este 15 Nordeste 0 -- -- 54
2019-05-22 08:00:00 12 9 Nordeste 13 Nordeste 0 -- -- 64
2019-05-22 07:00:00 11.5 7 Nordeste 13 Nordeste 0 -- -- 63
2019-05-22 06:00:00 12.1 8 Nordeste 16 Nordeste 0 -- -- 57
2019-05-22 05:00:00 12.4 8 Nordeste 13 Nordeste 0 -- -- 63
2019-05-22 04:00:00 14 7 Nordeste 24 Nordeste 0 -- -- 54
2019-05-22 03:00:00 14.6 11 Nordeste 23 Nordeste 0 -- -- 48
2019-05-22 02:00:00 14.4 7 Nordeste 14 Nordeste 0 -- -- 50
2019-05-22 01:00:00 14.6 4 Nordeste 13 Nordeste 0 -- -- 50
2019-05-22 00:00:00 15.9 7 Nordeste 16 Nordeste 0 -- -- 48